createdAt,value
2023-06-24T00:00:53.372Z,12.92
2023-06-24T00:03:54.114Z,12.85
2023-06-24T00:06:53.481Z,12.90
2023-06-24T00:09:50.419Z,12.83
2023-06-24T00:12:47.396Z,12.88
2023-06-24T00:15:44.569Z,12.95
2023-06-24T00:18:42.602Z,12.84
2023-06-24T00:21:40.961Z,12.90
2023-06-24T00:24:37.861Z,12.82
2023-06-24T00:27:34.846Z,12.86
2023-06-24T00:30:31.953Z,12.78
2023-06-24T00:33:29.027Z,12.71
2023-06-24T00:36:27.733Z,12.75
2023-06-24T00:39:24.949Z,12.76
2023-06-24T00:42:21.922Z,12.65
2023-06-24T00:45:19.161Z,12.53
2023-06-24T00:48:16.327Z,12.49
2023-06-24T00:51:13.485Z,12.51
2023-06-24T00:54:10.315Z,12.43
2023-06-24T00:57:07.502Z,12.43
2023-06-24T01:00:10.181Z,12.45
2023-06-24T01:03:07.470Z,12.42
2023-06-24T01:06:04.556Z,12.46
2023-06-24T01:09:03.314Z,12.37
2023-06-24T01:12:00.172Z,12.39
2023-06-24T01:14:57.152Z,12.26
2023-06-24T01:18:28.377Z,12.22
2023-06-24T01:21:47.432Z,12.19
2023-06-24T01:25:31.968Z,12.30
2023-06-24T01:28:49.635Z,12.17
2023-06-24T01:31:56.114Z,12.17
2023-06-24T01:35:04.248Z,12.21
2023-06-24T01:38:08.916Z,11.98
2023-06-24T01:41:07.344Z,12.17
2023-06-24T01:44:05.725Z,12.11
2023-06-24T01:47:05.949Z,12.06
2023-06-24T01:50:04.573Z,11.97
2023-06-24T01:53:07.097Z,11.98
2023-06-24T01:56:06.848Z,11.87
2023-06-24T01:59:05.584Z,11.81
2023-06-24T02:02:03.651Z,11.89
2023-06-24T02:05:03.323Z,12.08
2023-06-24T02:08:01.807Z,12.00
2023-06-24T02:11:00.771Z,11.97
2023-06-24T02:14:00.314Z,11.96
2023-06-24T02:17:01.062Z,11.86
2023-06-24T02:19:58.819Z,11.96
2023-06-24T02:22:57.285Z,11.77
2023-06-24T02:25:54.756Z,11.78
2023-06-24T02:28:52.074Z,11.78
2023-06-24T02:31:48.952Z,11.68
2023-06-24T02:34:47.312Z,11.80
2023-06-24T02:37:44.497Z,11.74
2023-06-24T02:40:44.086Z,11.86
2023-06-24T02:43:40.942Z,11.93
2023-06-24T02:46:39.536Z,11.77
2023-06-24T02:49:38.441Z,11.75
2023-06-24T02:52:38.004Z,11.71
2023-06-24T02:55:36.122Z,11.71
2023-06-24T02:58:33.735Z,11.68
2023-06-24T03:01:30.995Z,11.61
2023-06-24T03:04:29.200Z,11.62
2023-06-24T03:07:26.609Z,11.67
2023-06-24T03:10:25.596Z,11.60
2023-06-24T03:13:22.575Z,11.60
2023-06-24T03:16:19.508Z,11.65
2023-06-24T03:19:16.431Z,11.68
2023-06-24T03:22:13.324Z,11.62
2023-06-24T03:25:10.178Z,11.81
2023-06-24T03:28:08.741Z,11.69
2023-06-24T03:31:05.686Z,11.67
2023-06-24T03:34:02.629Z,11.72
2023-06-24T03:36:59.523Z,11.67
2023-06-24T03:39:58.050Z,11.67
2023-06-24T03:42:54.938Z,11.58
2023-06-24T03:45:51.789Z,11.66
2023-06-24T03:48:50.851Z,11.56
2023-06-24T03:51:47.717Z,11.69
2023-06-24T03:54:44.569Z,11.59
2023-06-24T03:57:41.439Z,11.59
2023-06-24T04:00:41.736Z,11.68
2023-06-24T04:03:38.626Z,11.57
2023-06-24T04:06:35.541Z,11.63
2023-06-24T04:09:35.749Z,11.51
2023-06-24T04:12:32.579Z,11.56
2023-06-24T04:15:29.540Z,11.67
2023-06-24T04:18:26.474Z,11.61
2023-06-24T04:21:23.340Z,11.77
2023-06-24T04:24:20.198Z,11.78
2023-06-24T04:27:17.302Z,11.60
2023-06-24T04:30:14.231Z,11.70
2023-06-24T04:33:11.112Z,11.64
2023-06-24T04:36:08.012Z,11.69
2023-06-24T04:39:04.888Z,11.83
2023-06-24T04:42:01.782Z,11.60
2023-06-24T04:44:58.716Z,11.77
2023-06-24T04:47:55.630Z,11.63
2023-06-24T04:50:54.589Z,11.83
2023-06-24T04:53:51.477Z,11.81
2023-06-24T04:56:50.834Z,11.78
2023-06-24T04:59:47.679Z,11.73
2023-06-24T05:02:46.527Z,11.82
2023-06-24T05:05:43.810Z,12.04
2023-06-24T05:08:40.960Z,12.00
2023-06-24T05:11:37.993Z,12.05
2023-06-24T05:14:38.516Z,12.15
2023-06-24T05:17:35.450Z,12.41
2023-06-24T05:20:32.350Z,12.48
2023-06-24T05:23:29.293Z,12.56
2023-06-24T05:26:26.134Z,12.58
2023-06-24T05:29:23.086Z,12.53
2023-06-24T05:32:21.424Z,12.50
2023-06-24T05:35:18.479Z,12.49
2023-06-24T05:38:15.750Z,12.69
2023-06-24T05:41:12.630Z,12.80
2023-06-24T05:44:11.229Z,12.87
2023-06-24T05:47:08.139Z,13.07
2023-06-24T05:50:05.845Z,13.09
2023-06-24T05:53:02.746Z,13.09
2023-06-24T05:55:59.567Z,13.14
2023-06-24T05:58:56.676Z,13.09
2023-06-24T06:01:53.614Z,13.04
2023-06-24T06:04:51.544Z,13.19
2023-06-24T06:07:49.475Z,13.14
2023-06-24T06:10:46.323Z,13.22
2023-06-24T06:13:43.215Z,13.24
2023-06-24T06:16:40.653Z,13.28
2023-06-24T06:19:37.540Z,13.37
2023-06-24T06:22:38.745Z,13.41
2023-06-24T06:25:36.979Z,13.47
2023-06-24T06:28:34.112Z,13.56
2023-06-24T06:31:31.000Z,13.67
2023-06-24T06:34:27.912Z,13.69
2023-06-24T06:37:24.757Z,13.81
2023-06-24T06:40:22.536Z,13.98
2023-06-24T06:43:19.388Z,13.97
2023-06-24T06:46:16.338Z,14.12
2023-06-24T06:49:13.244Z,14.18
2023-06-24T06:52:10.081Z,14.28
2023-06-24T06:55:07.238Z,14.44
2023-06-24T06:58:04.090Z,14.63
2023-06-24T07:01:02.819Z,14.78
2023-06-24T07:03:59.743Z,15.03
2023-06-24T07:06:56.719Z,15.03
2023-06-24T07:09:53.580Z,15.18
2023-06-24T07:12:50.460Z,15.27
2023-06-24T07:15:47.499Z,15.40
2023-06-24T07:18:44.576Z,15.62
2023-06-24T07:21:41.455Z,15.76
2023-06-24T07:24:38.316Z,15.83
2023-06-24T07:27:35.194Z,16.19
2023-06-24T07:30:32.090Z,16.31
2023-06-24T07:33:31.511Z,16.32
2023-06-24T07:36:28.382Z,16.27
2023-06-24T07:39:25.358Z,16.62
2023-06-24T07:42:22.557Z,16.61
2023-06-24T07:45:19.602Z,16.63
2023-06-24T07:48:16.582Z,16.76
2023-06-24T07:51:13.512Z,16.67
2023-06-24T07:54:10.415Z,16.85
2023-06-24T07:57:07.332Z,16.92
2023-06-24T08:00:10.421Z,16.82
2023-06-24T08:03:07.426Z,16.79
2023-06-24T08:06:05.147Z,17.03
2023-06-24T08:09:02.008Z,17.06
2023-06-24T08:11:58.951Z,17.42
2023-06-24T08:14:55.848Z,17.62
2023-06-24T08:17:54.395Z,17.61
2023-06-24T08:20:51.285Z,17.99
2023-06-24T08:23:49.244Z,18.08
2023-06-24T08:26:46.097Z,18.08
2023-06-24T08:29:42.935Z,17.89
2023-06-24T08:32:41.302Z,17.97
2023-06-24T08:35:38.337Z,18.23
2023-06-24T08:38:35.267Z,18.13
2023-06-24T08:41:32.204Z,18.08
2023-06-24T08:44:29.083Z,18.49
2023-06-24T08:47:28.785Z,18.48
2023-06-24T08:50:32.302Z,18.65
2023-06-24T08:53:29.758Z,18.36
2023-06-24T08:56:27.088Z,18.85
2023-06-24T08:59:24.034Z,19.26
2023-06-24T09:02:21.724Z,19.18
2023-06-24T09:05:18.777Z,19.95
2023-06-24T09:08:17.072Z,20.29
2023-06-24T09:11:13.956Z,20.38
2023-06-24T09:14:13.725Z,20.65
2023-06-24T09:17:10.735Z,20.83
2023-06-24T09:20:10.205Z,20.83
2023-06-24T09:23:07.091Z,20.48
2023-06-24T09:26:04.164Z,19.86
2023-06-24T09:29:01.028Z,20.20
2023-06-24T09:31:59.689Z,20.34
2023-06-24T09:34:56.622Z,20.56
2023-06-24T09:37:55.019Z,20.92
2023-06-24T09:41:12.899Z,21.38
2023-06-24T09:44:12.651Z,22.13
2023-06-24T09:47:10.582Z,20.85
2023-06-24T09:50:07.790Z,20.68
2023-06-24T09:53:05.721Z,20.58
2023-06-24T09:56:05.309Z,21.18
2023-06-24T09:59:02.509Z,21.65
2023-06-24T10:02:00.883Z,22.06
2023-06-24T10:04:57.897Z,22.39
2023-06-24T10:07:54.827Z,22.87
2023-06-24T10:10:51.666Z,21.60
2023-06-24T10:13:48.637Z,22.52
2023-06-24T10:16:45.880Z,22.61
2023-06-24T10:19:43.097Z,23.04
2023-06-24T10:22:40.017Z,22.60
2023-06-24T10:25:38.382Z,21.70
2023-06-24T10:29:07.162Z,21.48
2023-06-24T10:32:09.450Z,21.02
2023-06-24T10:35:07.022Z,21.03
2023-06-24T10:38:03.893Z,20.84
2023-06-24T10:41:15.810Z,20.75
2023-06-24T10:44:16.981Z,20.70
2023-06-24T10:47:13.822Z,20.54
2023-06-24T10:50:17.140Z,21.38
2023-06-24T10:53:15.058Z,21.25
2023-06-24T10:56:12.776Z,22.48
2023-06-24T10:59:09.624Z,22.78
2023-06-24T11:02:06.517Z,21.65
2023-06-24T11:05:04.993Z,21.32
2023-06-24T11:08:01.848Z,20.49
2023-06-24T11:10:58.770Z,20.06
2023-06-24T11:13:56.615Z,19.76
2023-06-24T11:16:53.529Z,19.51
2023-06-24T11:19:50.404Z,20.57
2023-06-24T11:22:47.278Z,21.79
2023-06-24T11:25:44.881Z,22.95
2023-06-24T11:28:41.849Z,23.22
2023-06-24T11:31:38.834Z,22.91
2023-06-24T11:34:37.641Z,21.60
2023-06-24T11:37:34.659Z,22.42
2023-06-24T11:40:34.450Z,21.43
2023-06-24T11:43:31.433Z,21.76
2023-06-24T11:46:36.643Z,21.15
2023-06-24T11:49:48.354Z,20.73
2023-06-24T11:52:49.178Z,20.44
2023-06-24T11:55:52.788Z,20.71
2023-06-24T11:58:52.365Z,22.10
2023-06-24T12:02:01.530Z,22.84
2023-06-24T12:04:58.412Z,23.15
2023-06-24T12:08:03.852Z,23.61
2023-06-24T12:11:00.731Z,23.39
2023-06-24T12:13:57.578Z,24.73
2023-06-24T12:16:54.457Z,22.86
2023-06-24T12:19:51.311Z,23.17
2023-06-24T12:22:49.646Z,23.30
2023-06-24T12:25:46.557Z,22.96
2023-06-24T12:28:43.434Z,23.25
2023-06-24T12:31:40.434Z,22.37
2023-06-24T12:34:37.308Z,21.90
2023-06-24T12:37:35.073Z,22.20
2023-06-24T12:40:31.996Z,21.20
2023-06-24T12:43:28.853Z,20.81
2023-06-24T12:46:26.067Z,20.89
2023-06-24T12:49:22.936Z,20.71
2023-06-24T12:52:20.541Z,20.53
2023-06-24T12:55:17.552Z,21.64
2023-06-24T12:58:23.601Z,22.14
2023-06-24T13:01:20.538Z,23.07
2023-06-24T13:04:19.266Z,23.21
2023-06-24T13:07:17.026Z,23.53
2023-06-24T13:10:14.113Z,22.27
2023-06-24T13:13:11.375Z,21.86
2023-06-24T13:16:08.258Z,21.38
2023-06-24T13:19:05.298Z,20.95
2023-06-24T13:22:02.166Z,20.66
2023-06-24T13:24:59.167Z,20.44
2023-06-24T13:27:56.047Z,20.06
2023-06-24T13:30:55.598Z,19.75
2023-06-24T13:33:52.950Z,19.57
2023-06-24T13:36:49.811Z,19.50
2023-06-24T13:39:46.716Z,19.54
2023-06-24T13:42:43.657Z,19.37
2023-06-24T13:45:40.539Z,19.50
2023-06-24T13:48:37.410Z,19.66
2023-06-24T13:51:34.984Z,19.83
2023-06-24T13:54:33.989Z,19.94
2023-06-24T13:57:30.887Z,20.12
2023-06-24T14:00:27.775Z,20.27
2023-06-24T14:03:24.691Z,20.39
2023-06-24T14:06:23.584Z,20.42
2023-06-24T14:09:20.478Z,20.87
2023-06-24T14:12:17.313Z,21.34
2023-06-24T14:15:14.170Z,21.99
2023-06-24T14:18:11.275Z,22.06
2023-06-24T14:21:08.504Z,21.97
2023-06-24T14:24:15.693Z,21.52
2023-06-24T14:27:13.648Z,21.48
2023-06-24T14:30:10.984Z,21.25
2023-06-24T14:33:07.989Z,22.02
2023-06-24T14:36:05.121Z,21.32
2023-06-24T14:39:02.063Z,21.29
2023-06-24T14:41:58.916Z,21.79
2023-06-24T14:44:55.819Z,22.83
2023-06-24T14:47:52.949Z,23.27
2023-06-24T14:50:49.851Z,23.90
2023-06-24T14:53:46.742Z,23.88
2023-06-24T14:56:43.698Z,22.71
2023-06-24T14:59:40.641Z,23.52
2023-06-24T15:02:37.616Z,22.66
2023-06-24T15:05:35.539Z,22.23
2023-06-24T15:08:32.742Z,21.55
2023-06-24T15:11:29.581Z,21.24
2023-06-24T15:14:26.469Z,21.05
2023-06-24T15:17:25.351Z,21.27
2023-06-24T15:20:22.554Z,21.44
2023-06-24T15:23:19.422Z,21.86
2023-06-24T15:26:16.265Z,21.57
2023-06-24T15:29:13.185Z,21.74
2023-06-24T15:32:10.121Z,21.29
2023-06-24T15:35:07.462Z,21.20
2023-06-24T15:38:04.327Z,22.50
2023-06-24T15:41:01.194Z,23.07
2023-06-24T15:43:58.020Z,23.54
2023-06-24T15:46:55.169Z,23.24
2023-06-24T15:49:52.912Z,22.47
2023-06-24T15:52:49.788Z,21.97
2023-06-24T15:55:46.671Z,22.13
2023-06-24T15:58:43.607Z,21.44
2023-06-24T16:01:42.632Z,21.07
2023-06-24T16:04:39.686Z,21.28
2023-06-24T16:07:37.079Z,20.80
2023-06-24T16:10:34.621Z,20.69
2023-06-24T16:13:33.007Z,20.36
2023-06-24T16:16:29.988Z,20.44
2023-06-24T16:19:29.265Z,20.78
2023-06-24T16:22:26.176Z,21.13
2023-06-24T16:25:23.012Z,20.98
2023-06-24T16:28:19.870Z,20.83
2023-06-24T16:31:16.908Z,20.71
2023-06-24T16:34:23.111Z,21.17
2023-06-24T16:37:20.950Z,22.07
2023-06-24T16:40:17.904Z,23.46
2023-06-24T16:43:14.924Z,24.04
2023-06-24T16:46:11.818Z,24.37
2023-06-24T16:49:08.864Z,24.35
2023-06-24T16:52:06.017Z,24.26
2023-06-24T16:55:04.236Z,24.04
2023-06-24T16:58:01.085Z,24.53
2023-06-24T17:00:57.963Z,24.37
2023-06-24T17:03:54.831Z,23.25
2023-06-24T17:06:51.746Z,23.84
2023-06-24T17:09:48.630Z,23.98
2023-06-24T17:12:45.573Z,23.61
2023-06-24T17:15:42.532Z,23.25
2023-06-24T17:18:39.409Z,22.75
2023-06-24T17:21:37.883Z,22.43
2023-06-24T17:24:34.774Z,22.40
2023-06-24T17:27:31.916Z,22.08
2023-06-24T17:30:28.957Z,22.25
2023-06-24T17:33:27.166Z,22.20
2023-06-24T17:36:24.030Z,21.87
2023-06-24T17:39:21.152Z,21.72
2023-06-24T17:42:19.331Z,21.54
2023-06-24T17:45:16.218Z,21.55
2023-06-24T17:48:13.117Z,21.45
2023-06-24T17:51:10.188Z,21.31
2023-06-24T17:54:07.036Z,21.53
2023-06-24T17:57:04.029Z,21.38
2023-06-24T18:00:00.907Z,21.25
2023-06-24T18:02:58.095Z,20.81
2023-06-24T18:05:55.028Z,20.60
2023-06-24T18:08:51.908Z,20.77
2023-06-24T18:11:48.802Z,20.74
2023-06-24T18:14:45.754Z,20.37
2023-06-24T18:17:42.768Z,20.12
2023-06-24T18:20:39.762Z,20.04
2023-06-24T18:23:36.935Z,19.70
2023-06-24T18:26:33.936Z,19.50
2023-06-24T18:29:30.877Z,19.59
2023-06-24T18:32:27.815Z,19.56
2023-06-24T18:35:24.677Z,19.68
2023-06-24T18:38:21.855Z,19.65
2023-06-24T18:41:18.751Z,19.31
2023-06-24T18:44:15.755Z,19.38
2023-06-24T18:47:12.616Z,19.31
2023-06-24T18:50:10.501Z,19.36
2023-06-24T18:53:11.696Z,19.30
2023-06-24T18:56:08.593Z,19.10
2023-06-24T18:59:05.646Z,19.09
2023-06-24T19:02:02.504Z,19.10
2023-06-24T19:04:59.473Z,19.05
2023-06-24T19:07:56.437Z,19.09
2023-06-24T19:10:53.320Z,18.77
2023-06-24T19:13:52.208Z,18.66
2023-06-24T19:16:49.162Z,18.45
2023-06-24T19:19:46.021Z,18.31
2023-06-24T19:22:43.747Z,18.72
2023-06-24T19:25:40.828Z,18.42
2023-06-24T19:28:37.678Z,18.56
2023-06-24T19:31:34.739Z,18.13
2023-06-24T19:34:31.684Z,18.08
2023-06-24T19:37:30.399Z,17.75
2023-06-24T19:40:27.288Z,17.69
2023-06-24T19:43:25.138Z,17.56
2023-06-24T19:46:35.789Z,17.54
2023-06-24T19:49:52.564Z,17.44
2023-06-24T19:52:49.470Z,17.28
2023-06-24T19:55:46.409Z,17.20
2023-06-24T19:58:43.273Z,17.08
2023-06-24T20:01:40.168Z,17.11
2023-06-24T20:04:37.208Z,16.98
2023-06-24T20:07:34.190Z,17.02
2023-06-24T20:10:31.421Z,16.84
2023-06-24T20:13:28.270Z,16.68
2023-06-24T20:16:25.116Z,16.62
2023-06-24T20:19:24.020Z,16.65
2023-06-24T20:22:23.802Z,16.80
2023-06-24T20:25:21.567Z,16.65
2023-06-24T20:28:18.411Z,16.63
2023-06-24T20:31:15.337Z,16.58
2023-06-24T20:34:12.366Z,16.60
2023-06-24T20:37:09.202Z,16.06
2023-06-24T20:40:07.250Z,15.98
2023-06-24T20:43:04.104Z,16.37
2023-06-24T20:46:01.179Z,16.21
2023-06-24T20:48:59.829Z,16.07
2023-06-24T20:51:56.703Z,16.01
2023-06-24T20:54:53.606Z,15.97
2023-06-24T20:57:50.457Z,15.76
2023-06-24T21:00:47.312Z,15.95
2023-06-24T21:03:44.205Z,15.72
2023-06-24T21:06:41.116Z,16.05
2023-06-24T21:09:38.006Z,15.75
2023-06-24T21:12:40.582Z,16.19
2023-06-24T21:15:47.216Z,15.75
2023-06-24T21:18:44.057Z,15.82
2023-06-24T21:21:40.918Z,15.70
2023-06-24T21:24:37.833Z,16.12
2023-06-24T21:27:34.679Z,15.67
2023-06-24T21:30:31.591Z,15.41
2023-06-24T21:33:28.445Z,15.79
2023-06-24T21:36:25.360Z,15.74
2023-06-24T21:39:22.209Z,15.78
2023-06-24T21:42:19.054Z,15.39
2023-06-24T21:45:15.966Z,15.47
2023-06-24T21:48:12.861Z,15.50
2023-06-24T21:51:09.682Z,15.10
2023-06-24T21:54:06.969Z,15.51
2023-06-24T21:57:04.658Z,15.55
2023-06-24T22:00:01.506Z,15.57
2023-06-24T22:02:58.389Z,15.51
2023-06-24T22:05:55.253Z,15.24
2023-06-24T22:08:52.114Z,15.02
2023-06-24T22:11:49.374Z,15.19
2023-06-24T22:14:46.221Z,15.19
2023-06-24T22:17:43.129Z,14.99
2023-06-24T22:20:40.137Z,14.97
2023-06-24T22:23:37.046Z,15.05
2023-06-24T22:26:33.989Z,15.19
2023-06-24T22:29:30.840Z,15.20
2023-06-24T22:32:27.815Z,15.05
2023-06-24T22:35:24.832Z,15.08
2023-06-24T22:38:21.686Z,15.20
2023-06-24T22:41:18.642Z,15.13
2023-06-24T22:44:15.567Z,14.86
2023-06-24T22:47:12.462Z,14.66
2023-06-24T22:50:10.011Z,14.75
2023-06-24T22:53:06.940Z,14.80
2023-06-24T22:56:03.833Z,14.78
2023-06-24T22:59:00.670Z,14.68
2023-06-24T23:01:57.902Z,14.66
2023-06-24T23:04:55.268Z,14.84
2023-06-24T23:07:52.484Z,14.64
2023-06-24T23:10:49.558Z,14.70
2023-06-24T23:13:46.497Z,14.47
2023-06-24T23:16:44.513Z,14.44
2023-06-24T23:19:41.641Z,14.37
2023-06-24T23:22:38.683Z,14.39
2023-06-24T23:25:40.724Z,14.50
2023-06-24T23:28:39.070Z,13.99
2023-06-24T23:31:40.759Z,13.83
2023-06-24T23:34:38.926Z,13.91
2023-06-24T23:37:36.381Z,13.92
2023-06-24T23:40:33.551Z,13.73
2023-06-24T23:43:30.628Z,13.86
2023-06-24T23:46:27.970Z,14.16
2023-06-24T23:49:24.817Z,13.84
2023-06-24T23:52:21.769Z,13.86
2023-06-24T23:55:18.686Z,13.66
2023-06-24T23:58:15.539Z,13.72
